Sawtelle Peak

Sawtelle summit stationLocated on Sawtelle Peak in the Centennials. Use the Sawtelle SNOdar or the nearest SNOTEL station for snow depth data: White Elephant. The data on this page is also available to view at dataGarrison.com.

 

Elevation
9885ft
Jump to table bottom
Date Time Temperature
deg F
RH, % Wind Speed Wind Gust Wind Direction Pressure Light
02/06/23 07:00 12.2 94 10 18 NW - 334 699.180 95
02/06/23 06:00 12.1 94 10 19 NW - 337 698.300 0
02/06/23 05:00 12.4 94 9 16 NW - 329 697.980 1
02/06/23 04:00 12.3 94 10 19 NW - 329 697.840 1
02/06/23 03:00 12.0 94 13 23 NW - 313 696.940 1
02/06/23 02:00 11.8 94 12 26 NW - 314 696.520 2
02/06/23 01:00 11.8 94 12 23 NW - 309 696.480 1
02/06/23 00:00 12.1 94 7 19 NW - 323 696.600 2
02/05/23 23:00 12.8 94 9 19 NW - 314 696.400 2
02/05/23 22:00 13.2 94 9 23 NW - 320 696.440 1
02/05/23 21:00 13.0 94 10 22 NW - 313 695.860 1
02/05/23 20:00 13.7 94 14 22 NW - 296 695.780 0
02/05/23 19:00 13.5 94 23 36 W - 274 695.900 0
02/05/23 18:00 13.7 94 30 42 W - 268 695.240 6
02/05/23 17:00 13.8 95 29 44 W - 277 694.740 27,596
02/05/23 16:00 13.4 94 31 41 W - 270 694.580 80,098
02/05/23 15:00 13.6 94 26 36 W - 270 694.580 207,221
02/05/23 14:00 13.6 94 34 47 W - 267 694.460 220,442
02/05/23 13:00 14.4 94 36 49 W - 265 694.220 264,172
02/05/23 12:00 15.9 94 27 43 W - 264 695.340 420,788
02/05/23 11:00 15.7 94 31 48 W - 263 695.400 376,041
02/05/23 10:00 15.8 95 31 49 W - 263 695.880 232,646
02/05/23 09:00 16.0 92 27 44 W - 260 696.820 128,913
02/05/23 08:00 15.8 91 24 37 W - 256 697.300 61,538
02/05/23 07:00 15.5 93 19 30 SW - 240 697.820 106
02/05/23 06:00 15.2 95 21 31 SW - 237 698.300 0
02/05/23 05:00 14.7 95 21 30 SW - 236 698.700 1
02/05/23 04:00 14.7 95 22 32 SW - 241 699.520 1
02/05/23 03:00 14.7 95 21 29 SW - 243 700.160 1
02/05/23 02:00 14.5 95 24 33 W - 253 700.980 2
02/05/23 01:00 14.2 95 20 28 W - 250 701.700 2
02/05/23 00:00 14.6 95 23 32 W - 250 702.460 2
02/04/23 23:00 14.6 95 18 28 W - 256 702.840 3
02/04/23 22:00 15.0 95 22 31 W - 265 703.380 3
02/04/23 21:00 15.0 95 20 31 W - 271 703.360 3
02/04/23 20:00 15.2 95 21 32 W - 277 704.040 1
02/04/23 19:00 15.0 95 25 37 W - 279 703.720 1
02/04/23 18:00 14.7 95 26 41 W - 277 703.260 11
02/04/23 17:00 14.8 95 33 43 W - 272 703.260 25,816
02/04/23 16:00 14.8 95 34 46 W - 270 702.900 140,100
02/04/23 15:00 14.8 94 30 43 W - 270 703.200 227,561
02/04/23 14:00 14.6 94 23 34 W - 272 703.480 620,117
02/04/23 13:00 16.8 89 16 24 W - 271 704.480 382,143
02/04/23 12:00 17.1 90 19 26 W - 271 704.800 418,754
02/04/23 11:00 16.4 91 17 24 W - 277 704.980 441,128
02/04/23 10:00 16.6 93 14 24 NW - 293 704.800 526,555
02/04/23 09:00 15.7 94 10 17 NW - 302 704.520 402,482
02/04/23 08:00 13.4 94 9 17 NW - 310 704.320 166,542
02/04/23 07:00 13.0 94 10 20 NW - 300 704.040 173
02/04/23 06:00 13.8 94 9 15 NW - 303 704.160 0